Capay, CA (95607)

6:35 AM PST on February 11, 2016 (GMT -0800)
East Side Road, Lake Berryessa | | Change Station
CLOSE
Current Station
Personal Weather Station
Location: Napa, CA
Elevation: 938 ft
Nearby Weather Stations

Elev 938 ft 38.60 °N, 122.20 °W | Updated 5 minutes ago

Partly Cloudy
Partly Cloudy
45.7 °F
Feels Like 46 °F
N
0.0
Wind Variable Wind from North
Gusts 2.0 mph

Today
High -- | Low -- °F
--% Chance of Precip.
Yesterday
High -- | Low -- °F
Precip. -- in
Pressure 30.17 in
Visibility 6.0 miles
Clouds Clear
Windchill 46 °F
Dew Point 44 °F
Humidity 92%
Rainfall 0.00 in
Snow Depth Not available.
7:04 AM 5:41 PM
Waxing Crescent, 12% visible
METAR KEDU 111415Z AUTO 00000KT 6SM CLR 07/07 A3017 RMK AO1
Pressure 30.17 in
Visibility 6.0 miles
Clouds Clear
Windchill 46 °F
Dew Point 44 °F
Humidity 92%
Rainfall 0.00 in
Snow Depth Not available.
7:04 AM 5:41 PM
Waxing Crescent, 12% visible
METAR KEDU 111415Z AUTO 00000KT 6SM CLR 07/07 A3017 RMK AO1

10-Day Weather Forecast

Almanac

Astronomy

Feb. 11, 2016 Rise Set
Actual Time
Civil Twilight
Nautical Twilight
Astronomical Twilight
Moon
Length of Visible Light
Length of Day
Tomorrow will be .
, % of the Moon is Illuminated

Today's Extremes

State Highs State Lows

Community

WunderPhotos

Upload Photos

1,892,054 photos uploaded!

WunderBlog® & News

Nearby

Air Quality

  Air Quality AQ Index Pollutant
Not available.

Snow Depth

Station Depth Elevation

Earthquake Activity

City Distance Mag. Time & Date
Minimum magnitude displayed is 2.5.

Coastal Water Temperatures

Place Temperature

Stations

Nearby Weather Stations

Station Location Temp. Windchill Dew Point Humidity Wind Precip. Elev Updated Type
                   

Watches & Warnings

There are currently no watches in effect.